sensor_id;sensor_type;location;lat;lon;timestamp;temperature;humidity
35244;DHT22;37916;52.160;21.066;2022-12-18T00:00:42;-2.70;89.30
35244;DHT22;37916;52.160;21.066;2022-12-18T00:10:44;-2.70;89.00
35244;DHT22;37916;52.160;21.066;2022-12-18T00:20:44;-2.70;88.70
35244;DHT22;37916;52.160;21.066;2022-12-18T00:30:45;-2.70;88.80
35244;DHT22;37916;52.160;21.066;2022-12-18T00:40:46;-3.00;86.50
35244;DHT22;37916;52.160;21.066;2022-12-18T00:50:48;-3.50;86.00
35244;DHT22;37916;52.160;21.066;2022-12-18T01:00:49;-3.30;87.30
35244;DHT22;37916;52.160;21.066;2022-12-18T01:10:50;-3.00;87.60
35244;DHT22;37916;52.160;21.066;2022-12-18T01:20:51;-3.40;86.20
35244;DHT22;37916;52.160;21.066;2022-12-18T01:30:51;-2.90;88.30
35244;DHT22;37916;52.160;21.066;2022-12-18T01:41:00;-2.70;88.90
35244;DHT22;37916;52.160;21.066;2022-12-18T01:51:02;-2.60;88.70
35244;DHT22;37916;52.160;21.066;2022-12-18T02:01:02;-2.50;88.80
35244;DHT22;37916;52.160;21.066;2022-12-18T02:11:15;-2.70;87.30
35244;DHT22;37916;52.160;21.066;2022-12-18T02:21:46;-2.80;86.10
35244;DHT22;37916;52.160;21.066;2022-12-18T02:31:54;-2.60;88.20
35244;DHT22;37916;52.160;21.066;2022-12-18T02:41:57;-3.20;85.10
35244;DHT22;37916;52.160;21.066;2022-12-18T03:02:18;-3.10;87.00
35244;DHT22;37916;52.160;21.066;2022-12-18T03:12:58;-3.00;86.60
35244;DHT22;37916;52.160;21.066;2022-12-18T03:34:12;-3.00;87.40
35244;DHT22;37916;52.160;21.066;2022-12-18T03:44:38;-3.10;85.80
35244;DHT22;37916;52.160;21.066;2022-12-18T03:54:41;-3.10;87.30
35244;DHT22;37916;52.160;21.066;2022-12-18T04:04:46;-3.20;84.20
35244;DHT22;37916;52.160;21.066;2022-12-18T04:14:49;-3.20;85.90
35244;DHT22;37916;52.160;21.066;2022-12-18T04:24:49;-3.10;87.00
35244;DHT22;37916;52.160;21.066;2022-12-18T04:34:50;-3.00;86.90
35244;DHT22;37916;52.160;21.066;2022-12-18T04:45:28;-2.90;87.50
35244;DHT22;37916;52.160;21.066;2022-12-18T04:56:01;-2.80;88.50
35244;DHT22;37916;52.160;21.066;2022-12-18T05:06:23;-2.90;88.00
35244;DHT22;37916;52.160;21.066;2022-12-18T05:16:41;-3.10;88.30
35244;DHT22;37916;52.160;21.066;2022-12-18T05:27:17;-3.50;88.00
35244;DHT22;37916;52.160;21.066;2022-12-18T05:37:47;-3.90;88.30
35244;DHT22;37916;52.160;21.066;2022-12-18T05:58:29;-4.10;89.10
35244;DHT22;37916;52.160;21.066;2022-12-18T06:08:30;-4.50;88.00
35244;DHT22;37916;52.160;21.066;2022-12-18T06:18:49;-4.90;88.10
35244;DHT22;37916;52.160;21.066;2022-12-18T06:29:24;-4.50;88.60
35244;DHT22;37916;52.160;21.066;2022-12-18T06:39:54;-4.00;89.30
35244;DHT22;37916;52.160;21.066;2022-12-18T06:50:22;-4.10;88.00
35244;DHT22;37916;52.160;21.066;2022-12-18T07:01:04;-3.50;89.50
35244;DHT22;37916;52.160;21.066;2022-12-18T07:11:29;-3.40;89.40
35244;DHT22;37916;52.160;21.066;2022-12-18T07:21:32;-3.20;89.40
35244;DHT22;37916;52.160;21.066;2022-12-18T07:31:33;-2.90;89.30
35244;DHT22;37916;52.160;21.066;2022-12-18T07:41:49;-2.70;89.70
35244;DHT22;37916;52.160;21.066;2022-12-18T07:52:09;-2.90;87.80
35244;DHT22;37916;52.160;21.066;2022-12-18T08:02:10;-2.50;89.40
35244;DHT22;37916;52.160;21.066;2022-12-18T08:12:10;-2.20;89.30
35244;DHT22;37916;52.160;21.066;2022-12-18T08:22:11;-2.40;86.70
35244;DHT22;37916;52.160;21.066;2022-12-18T08:32:12;-2.10;88.50
35244;DHT22;37916;52.160;21.066;2022-12-18T08:42:12;-2.00;88.00
35244;DHT22;37916;52.160;21.066;2022-12-18T08:52:38;-1.60;88.10
35244;DHT22;37916;52.160;21.066;2022-12-18T09:02:44;-1.40;85.10
35244;DHT22;37916;52.160;21.066;2022-12-18T09:12:45;-1.20;85.70
35244;DHT22;37916;52.160;21.066;2022-12-18T09:22:46;-1.10;85.00
35244;DHT22;37916;52.160;21.066;2022-12-18T09:32:56;-1.00;86.30
35244;DHT22;37916;52.160;21.066;2022-12-18T09:43:03;-0.60;83.80
35244;DHT22;37916;52.160;21.066;2022-12-18T09:53:27;-0.70;84.10
35244;DHT22;37916;52.160;21.066;2022-12-18T10:03:59;-0.40;85.10
35244;DHT22;37916;52.160;21.066;2022-12-18T10:24:46;-0.60;85.90
35244;DHT22;37916;52.160;21.066;2022-12-18T10:34:57;-0.70;83.90
35244;DHT22;37916;52.160;21.066;2022-12-18T10:45:22;-0.70;82.20
35244;DHT22;37916;52.160;21.066;2022-12-18T10:55:51;-0.90;80.70
35244;DHT22;37916;52.160;21.066;2022-12-18T11:16:23;-0.60;80.50
35244;DHT22;37916;52.160;21.066;2022-12-18T12:08:06;-0.20;83.50
35244;DHT22;37916;52.160;21.066;2022-12-18T12:18:54;-0.30;83.80
35244;DHT22;37916;52.160;21.066;2022-12-18T12:39:40;-1.20;84.70
35244;DHT22;37916;52.160;21.066;2022-12-18T12:49:51;-1.50;86.20
35244;DHT22;37916;52.160;21.066;2022-12-18T13:00:07;-1.40;87.80
35244;DHT22;37916;52.160;21.066;2022-12-18T13:20:33;-1.10;88.30
35244;DHT22;37916;52.160;21.066;2022-12-18T13:50:58;-1.00;87.30
35244;DHT22;37916;52.160;21.066;2022-12-18T14:01:00;-1.10;86.80
35244;DHT22;37916;52.160;21.066;2022-12-18T14:11:04;-1.10;86.20
35244;DHT22;37916;52.160;21.066;2022-12-18T14:21:05;-1.20;87.10
35244;DHT22;37916;52.160;21.066;2022-12-18T14:31:17;-1.20;88.10
35244;DHT22;37916;52.160;21.066;2022-12-18T14:41:19;-1.10;88.60
35244;DHT22;37916;52.160;21.066;2022-12-18T14:51:26;-1.10;89.00
35244;DHT22;37916;52.160;21.066;2022-12-18T15:23:14;-1.30;88.20
35244;DHT22;37916;52.160;21.066;2022-12-18T15:33:24;-1.40;87.90
35244;DHT22;37916;52.160;21.066;2022-12-18T15:43:27;-1.40;88.50
35244;DHT22;37916;52.160;21.066;2022-12-18T15:53:34;-1.30;88.70
35244;DHT22;37916;52.160;21.066;2022-12-18T16:03:35;-1.40;89.10
35244;DHT22;37916;52.160;21.066;2022-12-18T16:13:35;-1.50;88.70
35244;DHT22;37916;52.160;21.066;2022-12-18T16:23:36;-1.50;89.40
35244;DHT22;37916;52.160;21.066;2022-12-18T16:33:37;-1.70;89.00
35244;DHT22;37916;52.160;21.066;2022-12-18T16:43:38;-1.70;89.30
35244;DHT22;37916;52.160;21.066;2022-12-18T16:53:41;-1.60;89.50
35244;DHT22;37916;52.160;21.066;2022-12-18T17:03:42;-1.70;89.30
35244;DHT22;37916;52.160;21.066;2022-12-18T17:13:42;-1.80;88.90
35244;DHT22;37916;52.160;21.066;2022-12-18T17:23:43;-1.90;88.20
35244;DHT22;37916;52.160;21.066;2022-12-18T17:33:45;-1.80;89.00
35244;DHT22;37916;52.160;21.066;2022-12-18T17:43:57;-1.90;89.00
35244;DHT22;37916;52.160;21.066;2022-12-18T17:53:58;-1.80;89.60
35244;DHT22;37916;52.160;21.066;2022-12-18T18:03:59;-1.90;89.10
35244;DHT22;37916;52.160;21.066;2022-12-18T18:14:03;-1.90;88.90
35244;DHT22;37916;52.160;21.066;2022-12-18T18:24:05;-2.00;89.00
35244;DHT22;37916;52.160;21.066;2022-12-18T18:34:07;-2.10;88.50
35244;DHT22;37916;52.160;21.066;2022-12-18T18:44:11;-2.10;88.90
35244;DHT22;37916;52.160;21.066;2022-12-18T18:54:24;-2.10;89.10
35244;DHT22;37916;52.160;21.066;2022-12-18T19:04:32;-2.10;89.10
35244;DHT22;37916;52.160;21.066;2022-12-18T19:14:38;-2.20;88.10
35244;DHT22;37916;52.160;21.066;2022-12-18T19:24:39;-2.20;88.80
35244;DHT22;37916;52.160;21.066;2022-12-18T19:34:40;-2.40;87.30
35244;DHT22;37916;52.160;21.066;2022-12-18T19:44:41;-2.40;87.70
35244;DHT22;37916;52.160;21.066;2022-12-18T19:54:42;-2.30;88.80
35244;DHT22;37916;52.160;21.066;2022-12-18T20:04:42;-2.40;88.60
35244;DHT22;37916;52.160;21.066;2022-12-18T20:14:43;-2.50;88.40
35244;DHT22;37916;52.160;21.066;2022-12-18T20:24:46;-2.50;88.50
35244;DHT22;37916;52.160;21.066;2022-12-18T20:34:55;-2.80;86.40
35244;DHT22;37916;52.160;21.066;2022-12-18T20:45:00;-2.60;88.20
35244;DHT22;37916;52.160;21.066;2022-12-18T20:55:01;-2.70;87.50
35244;DHT22;37916;52.160;21.066;2022-12-18T21:05:01;-2.60;88.90
35244;DHT22;37916;52.160;21.066;2022-12-18T21:15:06;-2.50;88.80
35244;DHT22;37916;52.160;21.066;2022-12-18T21:25:08;-2.60;88.70
35244;DHT22;37916;52.160;21.066;2022-12-18T21:35:11;-2.60;88.10
35244;DHT22;37916;52.160;21.066;2022-12-18T21:45:14;-2.60;88.90
35244;DHT22;37916;52.160;21.066;2022-12-18T21:55:15;-2.60;89.00
35244;DHT22;37916;52.160;21.066;2022-12-18T22:05:16;-2.60;88.30
35244;DHT22;37916;52.160;21.066;2022-12-18T22:15:17;-2.60;88.70
35244;DHT22;37916;52.160;21.066;2022-12-18T22:25:18;-2.70;88.00
35244;DHT22;37916;52.160;21.066;2022-12-18T22:35:18;-3.00;86.10
35244;DHT22;37916;52.160;21.066;2022-12-18T22:45:20;-2.90;87.80
35244;DHT22;37916;52.160;21.066;2022-12-18T22:55:20;-3.00;87.50
35244;DHT22;37916;52.160;21.066;2022-12-18T23:05:21;-2.80;89.10
35244;DHT22;37916;52.160;21.066;2022-12-18T23:15:21;-3.00;88.50
35244;DHT22;37916;52.160;21.066;2022-12-18T23:25:22;-3.10;87.10
35244;DHT22;37916;52.160;21.066;2022-12-18T23:35:23;-3.10;86.80
35244;DHT22;37916;52.160;21.066;2022-12-18T23:45:24;-3.10;88.00
35244;DHT22;37916;52.160;21.066;2022-12-18T23:55:24;-3.20;86.60
